Time;durP1;ratioP1;P1;durP2;ratioP2;P2;SDS_P1;SDS_P2;PMS_P1;PMS_P2;Temp;Humidity;BMP_temperature;BMP_pressure;BME280_temperature;BME280_humidity;BME280_pressure;Samples;Min_cycle;Max_cycle;Signal;HPM_P1;HPM_P2
2023/05/12 00:00:39;;;;;;;10.15;7.35;;;16.00;88.70;;;;;;4921699;29;20028;-83
2023/05/12 00:03:05;;;;;;;9.25;6.80;;;16.00;88.70;;;;;;4921392;29;20072;-84
2023/05/12 00:05:31;;;;;;;9.20;6.47;;;16.00;88.80;;;;;;4920871;29;20588;-83
2023/05/12 00:07:56;;;;;;;9.23;7.05;;;16.00;88.70;;;;;;4920913;29;20083;-84
2023/05/12 00:10:22;;;;;;;9.60;6.90;;;16.00;88.70;;;;;;4920914;29;20039;-84
2023/05/12 00:12:48;;;;;;;9.93;7.40;;;16.00;88.70;;;;;;4920891;29;20122;-83
2023/05/12 00:15:13;;;;;;;8.82;6.57;;;16.00;88.70;;;;;;4920711;29;20091;-84
2023/05/12 00:17:39;;;;;;;9.35;6.82;;;16.00;88.70;;;;;;4921062;29;20023;-84
2023/05/12 00:20:05;;;;;;;9.18;6.90;;;16.00;88.70;;;;;;4920455;29;20051;-83
2023/05/12 00:22:31;;;;;;;8.65;6.15;;;16.00;88.70;;;;;;4937527;29;20589;-84
2023/05/12 00:24:56;;;;;;;9.20;7.15;;;16.00;88.70;;;;;;4920447;29;20035;-83
2023/05/12 00:27:22;;;;;;;10.43;7.32;;;16.00;88.70;;;;;;4920651;29;20130;-84
2023/05/12 00:29:48;;;;;;;9.35;6.68;;;16.00;88.70;;;;;;4937631;29;20457;-83
2023/05/12 00:32:13;;;;;;;9.88;6.90;;;16.00;88.70;;;;;;4937501;29;20024;-83
2023/05/12 00:34:39;;;;;;;9.32;6.88;;;16.00;88.80;;;;;;4920310;29;20024;-84
2023/05/12 00:37:05;;;;;;;10.27;7.60;;;16.00;88.70;;;;;;4920431;29;20028;-83
2023/05/12 00:39:31;;;;;;;10.15;7.15;;;16.00;88.80;;;;;;4920286;29;20036;-84
2023/05/12 00:41:57;;;;;;;10.15;7.65;;;16.00;88.80;;;;;;4937462;29;20027;-84
2023/05/12 00:44:23;;;;;;;10.75;7.43;;;16.00;88.80;;;;;;4920060;29;20024;-82
2023/05/12 00:46:49;;;;;;;9.68;7.25;;;16.00;88.80;;;;;;4937246;29;20036;-84
2023/05/12 00:49:15;;;;;;;9.93;7.45;;;16.00;88.80;;;;;;4920375;29;20059;-84
2023/05/12 00:51:41;;;;;;;9.38;7.22;;;16.00;88.80;;;;;;4920109;29;20066;-84
2023/05/12 00:54:07;;;;;;;11.43;8.00;;;16.00;88.80;;;;;;4920151;29;20114;-84
2023/05/12 00:56:38;;;;;;;9.70;7.45;;;16.00;88.80;;;;;;4919790;29;20114;-84
2023/05/12 00:59:04;;;;;;;10.50;7.72;;;16.00;88.80;;;;;;4935349;29;20027;-84
2023/05/12 01:01:30;;;;;;;9.98;7.55;;;16.00;88.80;;;;;;4939129;29;20031;-84
2023/05/12 01:03:56;;;;;;;10.55;7.85;;;16.00;88.80;;;;;;4955971;29;20027;-84
2023/05/12 01:06:28;;;;;;;10.32;7.53;;;16.00;88.90;;;;;;4938810;29;20054;-84
2023/05/12 01:08:54;;;;;;;10.32;7.85;;;16.00;88.80;;;;;;4938832;29;20027;-84
2023/05/12 01:11:21;;;;;;;10.27;7.55;;;16.00;88.80;;;;;;4939200;29;20392;-84
2023/05/12 01:13:47;;;;;;;10.18;7.63;;;16.00;88.80;;;;;;4954613;29;20024;-84
2023/05/12 01:16:14;;;;;;;12.20;8.25;;;16.00;88.80;;;;;;4938728;29;20448;-84
2023/05/12 01:18:48;;;;;;;11.00;8.07;;;16.00;88.80;;;;;;4938728;29;20136;-83
2023/05/12 01:21:13;;;;;;;10.88;8.15;;;16.00;88.80;;;;;;4955671;29;20027;-84
2023/05/12 01:23:45;;;;;;;10.55;8.20;;;16.00;88.80;;;;;;4955708;29;20038;-84
2023/05/12 01:26:11;;;;;;;;;;;16.00;88.80;;;;;;4956675;28;20122;-84
2023/05/12 01:28:38;;;;;;;10.10;7.50;;;16.00;88.80;;;;;;4938590;29;20004;-84
2023/05/12 01:31:05;;;;;;;11.15;8.20;;;16.00;88.80;;;;;;4954533;29;20038;-84
2023/05/12 01:33:31;;;;;;;10.75;8.38;;;16.00;88.80;;;;;;4955479;29;20023;-84
2023/05/12 01:35:57;;;;;;;10.77;8.35;;;16.00;88.80;;;;;;4938405;29;20074;-84
2023/05/12 01:38:22;;;;;;;10.43;8.07;;;16.00;88.80;;;;;;4938284;29;20432;-84
2023/05/12 01:40:48;;;;;;;10.93;8.40;;;16.00;88.90;;;;;;4938432;29;20054;-84
2023/05/12 01:43:14;;;;;;;11.13;8.35;;;16.00;88.80;;;;;;4955557;29;20034;-84
2023/05/12 01:45:39;;;;;;;10.63;8.35;;;16.00;88.90;;;;;;4938072;29;20073;-85
2023/05/12 01:48:04;;;;;;;12.38;8.95;;;16.00;88.80;;;;;;4955595;29;20110;-83
2023/05/12 01:50:30;;;;;;;10.73;8.43;;;16.00;88.80;;;;;;4955325;29;20031;-84
2023/05/12 01:52:55;;;;;;;9.90;7.70;;;16.00;89.30;;;;;;4938136;29;20130;-83
2023/05/12 01:55:21;;;;;;;11.20;8.45;;;15.90;88.70;;;;;;4938016;29;20413;-84
2023/05/12 01:57:46;;;;;;;10.70;8.07;;;16.00;88.80;;;;;;4938031;29;20026;-83
2023/05/12 02:00:12;;;;;;;10.68;8.25;;;16.00;88.80;;;;;;4955201;29;20035;-83
2023/05/12 02:02:38;;;;;;;11.85;8.68;;;15.90;88.70;;;;;;4938314;29;20031;-84
2023/05/12 02:05:03;;;;;;;11.05;8.27;;;15.90;88.80;;;;;;4937484;29;20035;-84
2023/05/12 02:07:29;;;;;;;10.82;8.48;;;15.90;88.70;;;;;;4937869;29;20078;-83
2023/05/12 02:09:54;;;;;;;11.00;8.27;;;16.00;88.80;;;;;;4937743;29;20019;-84
2023/05/12 02:12:20;;;;;;;12.23;8.20;;;16.00;88.80;;;;;;4938052;29;20612;-83
2023/05/12 02:14:45;;;;;;;11.20;8.35;;;16.00;88.80;;;;;;4937590;28;20024;-84
2023/05/12 02:17:11;;;;;;;10.63;8.50;;;16.00;88.80;;;;;;4937694;29;20110;-84
2023/05/12 02:19:36;;;;;;;10.70;8.13;;;16.00;88.80;;;;;;4954961;29;20033;-84
2023/05/12 02:22:02;;;;;;;11.30;8.55;;;16.00;89.30;;;;;;4937480;29;20527;-84
2023/05/12 02:24:28;;;;;;;10.35;8.05;;;16.00;88.80;;;;;;4937554;28;20023;-84
2023/05/12 02:26:53;;;;;;;10.55;8.15;;;15.90;88.80;;;;;;4937625;29;20114;-84
2023/05/12 02:29:19;;;;;;;9.95;7.97;;;15.90;88.80;;;;;;4937695;29;20516;-84
2023/05/12 02:31:44;;;;;;;10.25;7.97;;;16.00;88.90;;;;;;4953598;29;20027;-84
2023/05/12 02:34:10;;;;;;;10.82;8.30;;;15.90;88.80;;;;;;4954527;29;20472;-83
2023/05/12 02:36:35;;;;;;;10.55;7.90;;;16.00;88.80;;;;;;4937563;29;20086;-84
2023/05/12 02:39:01;;;;;;;11.23;8.10;;;15.90;88.80;;;;;;4953682;29;20039;-84
2023/05/12 02:41:27;;;;;;;10.57;8.52;;;15.90;88.80;;;;;;4937613;29;20033;-84
2023/05/12 02:43:52;;;;;;;10.77;8.27;;;16.00;88.90;;;;;;4935800;29;20400;-84
2023/05/12 02:46:18;;;;;;;11.02;8.23;;;15.90;88.80;;;;;;4937517;29;20047;-84
2023/05/12 02:48:43;;;;;;;10.38;8.43;;;16.00;88.80;;;;;;4954635;29;20071;-81
2023/05/12 02:51:08;;;;;;;10.63;7.95;;;16.00;88.80;;;;;;4954589;29;20024;-84
2023/05/12 02:53:34;;;;;;;10.30;7.90;;;15.90;88.70;;;;;;4937209;29;20472;-84
2023/05/12 02:56:00;;;;;;;11.15;8.15;;;15.90;88.70;;;;;;4954450;28;20024;-84
2023/05/12 02:58:26;;;;;;;9.98;7.88;;;15.90;88.80;;;;;;4937423;29;20094;-83
2023/05/12 03:00:51;;;;;;;9.95;7.97;;;15.90;88.80;;;;;;4954509;29;20050;-84
2023/05/12 03:03:16;;;;;;;10.85;8.02;;;16.00;88.80;;;;;;4937240;29;20031;-83
2023/05/12 03:05:43;;;;;;;11.27;7.75;;;15.90;88.70;;;;;;4937178;29;20114;-84
2023/05/12 03:08:08;;;;;;;10.82;8.13;;;15.90;88.80;;;;;;4937329;29;20034;-84
2023/05/12 03:10:34;;;;;;;10.70;8.38;;;16.00;88.90;;;;;;4937703;29;20023;-84
2023/05/12 03:12:59;;;;;;;11.23;8.40;;;16.00;88.80;;;;;;4954609;29;20472;-84
2023/05/12 03:15:25;;;;;;;10.68;7.82;;;15.90;88.70;;;;;;4937077;29;20015;-84
2023/05/12 03:17:50;;;;;;;10.60;8.30;;;15.90;88.80;;;;;;4937305;29;20542;-84
2023/05/12 03:20:16;;;;;;;9.52;7.30;;;16.00;88.80;;;;;;4954197;28;20046;-83
2023/05/12 03:22:41;;;;;;;10.73;8.35;;;15.90;88.70;;;;;;4957971;29;20114;-84
2023/05/12 03:25:09;;;;;;;10.43;8.02;;;15.90;88.70;;;;;;4940661;29;20023;-85
2023/05/12 03:27:34;;;;;;;10.20;7.45;;;15.90;88.70;;;;;;4940638;29;20027;-84
2023/05/12 03:30:00;;;;;;;11.48;8.10;;;15.90;88.80;;;;;;4940677;29;20444;-84
2023/05/12 03:32:27;;;;;;;10.40;8.05;;;15.90;88.70;;;;;;4957943;29;20023;-84
2023/05/12 03:34:53;;;;;;;10.65;8.15;;;15.90;88.70;;;;;;4940428;29;20028;-83
2023/05/12 03:37:18;;;;;;;10.52;8.15;;;15.90;88.70;;;;;;4957764;29;20039;-84
2023/05/12 03:39:44;;;;;;;11.35;8.07;;;16.00;88.80;;;;;;4938755;29;20023;-85
2023/05/12 03:42:09;;;;;;;10.50;7.90;;;15.90;88.70;;;;;;4958829;28;20023;-83
2023/05/12 03:44:35;;;;;;;10.10;7.90;;;15.90;88.70;;;;;;4957344;28;20058;-82
2023/05/12 03:47:00;;;;;;;11.57;7.72;;;15.90;88.70;;;;;;4957573;29;20082;-82
2023/05/12 03:49:25;;;;;;;9.70;7.53;;;15.90;88.70;;;;;;4958351;29;20034;-82
2023/05/12 03:51:51;;;;;;;9.95;7.72;;;15.90;88.70;;;;;;4940543;29;20114;-83
2023/05/12 03:54:16;;;;;;;10.30;7.60;;;15.90;88.70;;;;;;4940661;29;20052;-84
2023/05/12 03:56:42;;;;;;;10.40;8.05;;;16.00;88.80;;;;;;4938970;29;20028;-82
2023/05/12 03:59:07;;;;;;;9.75;7.70;;;15.90;88.70;;;;;;4938377;29;20039;-83
2023/05/12 04:01:34;;;;;;;12.05;7.95;;;15.90;88.70;;;;;;4937697;29;20063;-82
2023/05/12 04:04:00;;;;;;;10.27;7.90;;;15.90;88.70;;;;;;4937522;29;20031;-82
2023/05/12 04:06:25;;;;;;;10.63;8.25;;;15.90;88.70;;;;;;4949914;28;20499;-81
2023/05/12 04:08:50;;;;;;;9.93;7.57;;;15.90;88.70;;;;;;4944981;29;20050;-81
2023/05/12 04:11:16;;;;;;;9.40;7.47;;;15.90;88.70;;;;;;4952151;29;20476;-82
2023/05/12 04:13:41;;;;;;;10.25;8.10;;;15.90;88.70;;;;;;4953834;29;20034;-81
2023/05/12 04:16:07;;;;;;;9.95;7.85;;;15.90;88.70;;;;;;4954060;28;20027;-82
2023/05/12 04:18:34;;;;;;;10.40;8.13;;;15.90;88.70;;;;;;4953630;29;20023;-78
2023/05/12 04:21:00;;;;;;;10.85;8.13;;;15.90;88.70;;;;;;4954107;29;20026;-82
2023/05/12 04:23:25;;;;;;;9.90;7.70;;;15.90;88.70;;;;;;4955269;29;20400;-81
2023/05/12 04:25:50;;;;;;;9.35;7.70;;;15.90;88.70;;;;;;4953380;28;20036;-82
2023/05/12 04:28:16;;;;;;;10.75;7.88;;;15.90;88.70;;;;;;4953825;29;20116;-80
2023/05/12 04:30:42;;;;;;;9.52;7.55;;;15.90;88.70;;;;;;4952570;29;20082;-80
2023/05/12 04:33:08;;;;;;;9.68;7.65;;;15.90;88.70;;;;;;4953833;28;20035;-80
2023/05/12 04:35:34;;;;;;;9.80;7.30;;;15.90;88.70;;;;;;4952873;28;20046;-81
2023/05/12 04:38:00;;;;;;;10.05;7.93;;;15.90;88.70;;;;;;4938711;29;20071;-81
2023/05/12 04:40:26;;;;;;;9.45;7.70;;;15.90;88.70;;;;;;4934526;29;20441;-81
2023/05/12 04:42:51;;;;;;;10.70;7.90;;;15.90;88.70;;;;;;4928259;29;20031;-83
2023/05/12 04:45:17;;;;;;;9.88;7.65;;;15.90;88.70;;;;;;4953675;29;20110;-82
2023/05/12 04:47:42;;;;;;;9.90;7.80;;;15.90;88.70;;;;;;4938734;29;20049;-81
2023/05/12 04:50:09;;;;;;;10.52;8.23;;;15.90;88.60;;;;;;4938504;29;20091;-81
2023/05/12 04:52:35;;;;;;;10.18;8.18;;;15.90;88.70;;;;;;4954873;29;20535;-82
2023/05/12 04:55:00;;;;;;;10.43;8.25;;;16.00;88.70;;;;;;4953771;28;20147;-82
2023/05/12 04:57:26;;;;;;;9.57;7.20;;;15.90;88.70;;;;;;4936361;29;20122;-81
2023/05/12 04:59:58;;;;;;;10.32;7.70;;;15.90;88.70;;;;;;4953671;29;20110;-79
2023/05/12 05:05:23;;;;;;;10.57;8.48;;;15.80;88.60;;;;;;4954615;29;20009;-83
2023/05/12 05:08:16;;;;;;;9.68;7.55;;;16.00;88.70;;;;;;4939290;29;20050;-86
2023/05/12 05:10:41;;;;;;;9.57;7.55;;;15.90;88.60;;;;;;4944501;23;20059;-84
2023/05/12 05:13:07;;;;;;;9.75;7.85;;;15.90;88.70;;;;;;4926478;29;20020;-84
2023/05/12 05:15:32;;;;;;;10.50;7.97;;;15.90;88.70;;;;;;4925522;29;20055;-84
2023/05/12 05:17:58;;;;;;;10.88;8.45;;;15.90;88.70;;;;;;4925051;29;20027;-84
2023/05/12 05:20:24;;;;;;;10.93;8.25;;;15.90;88.80;;;;;;4935912;29;20028;-84
2023/05/12 05:22:49;;;;;;;11.93;8.88;;;15.90;88.80;;;;;;4923397;29;20039;-84
2023/05/12 05:25:15;;;;;;;10.55;8.32;;;15.90;88.80;;;;;;4903740;29;20389;-83
2023/05/12 05:27:41;;;;;;;10.80;8.35;;;15.90;89.30;;;;;;4901442;29;20051;-84
2023/05/12 05:30:08;;;;;;;11.30;8.43;;;15.90;88.70;;;;;;4921172;29;20126;-84
2023/05/12 05:32:35;;;;;;;10.00;7.53;;;15.90;88.80;;;;;;4902461;29;20564;-83
2023/05/12 05:35:01;;;;;;;12.10;9.20;;;15.90;88.80;;;;;;4901290;29;20024;-84
2023/05/12 05:37:27;;;;;;;10.63;8.18;;;15.90;88.80;;;;;;4900417;29;20206;-84
2023/05/12 05:39:52;;;;;;;9.93;8.07;;;15.90;88.70;;;;;;4920873;29;20024;-84
2023/05/12 05:42:18;;;;;;;11.63;8.48;;;15.90;88.70;;;;;;4920295;29;20028;-84
2023/05/12 05:44:43;;;;;;;10.82;8.57;;;15.90;88.70;;;;;;4903543;29;20126;-83
2023/05/12 05:47:09;;;;;;;9.80;7.90;;;15.90;88.70;;;;;;4900807;29;20032;-83
2023/05/12 05:49:34;;;;;;;10.02;8.00;;;15.90;88.70;;;;;;4917995;29;20028;-83
2023/05/12 05:51:59;;;;;;;10.85;8.15;;;15.90;88.70;;;;;;4903543;29;20416;-83
2023/05/12 05:54:25;;;;;;;10.95;8.93;;;15.80;88.60;;;;;;4916741;29;20032;-83
2023/05/12 05:56:51;;;;;;;9.85;7.95;;;15.90;88.70;;;;;;4918774;29;20102;-84
2023/05/12 05:59:16;;;;;;;10.32;7.88;;;15.90;88.70;;;;;;4920517;29;20055;-84
2023/05/12 06:01:43;;;;;;;12.15;8.25;;;15.90;88.60;;;;;;4919789;29;20580;-84
2023/05/12 06:04:09;;;;;;;10.70;8.30;;;15.90;88.70;;;;;;4902408;29;20027;-84
2023/05/12 06:06:34;;;;;;;10.10;8.02;;;15.90;88.70;;;;;;4918141;29;20024;-83
2023/05/12 06:09:00;;;;;;;9.82;7.82;;;15.90;88.60;;;;;;4899958;29;20031;-83
2023/05/12 06:11:25;;;;;;;9.60;8.07;;;15.90;88.60;;;;;;4917519;29;20032;-84
2023/05/12 06:13:51;;;;;;;10.07;7.90;;;15.90;88.60;;;;;;4898888;29;20123;-83
2023/05/12 06:16:16;;;;;;;10.07;8.05;;;15.90;88.60;;;;;;4900224;29;20052;-84
2023/05/12 06:18:42;;;;;;;9.95;7.93;;;15.90;88.60;;;;;;4898253;29;20394;-84
2023/05/12 06:21:08;;;;;;;11.90;8.00;;;15.90;88.50;;;;;;4898620;29;20029;-84
2023/05/12 06:23:34;;;;;;;10.48;8.15;;;15.90;88.50;;;;;;4918397;29;20107;-83
2023/05/12 06:25:59;;;;;;;10.55;8.05;;;16.00;88.60;;;;;;4896507;29;20064;-84
2023/05/12 06:28:25;;;;;;;10.38;7.80;;;16.00;88.60;;;;;;4914449;29;20457;-83
2023/05/12 06:30:50;;;;;;;10.60;8.18;;;15.90;88.50;;;;;;4917203;29;20029;-83
2023/05/12 06:33:15;;;;;;;9.35;7.53;;;15.90;88.50;;;;;;4898097;29;20072;-82
2023/05/12 06:35:41;;;;;;;10.93;7.97;;;15.90;88.50;;;;;;4915225;29;20033;-83
2023/05/12 06:38:06;;;;;;;10.30;8.15;;;16.00;88.50;;;;;;4916619;29;20402;-83
2023/05/12 06:40:32;;;;;;;10.00;7.82;;;15.90;88.50;;;;;;4896756;29;20024;-85
2023/05/12 06:42:57;;;;;;;10.35;7.82;;;15.90;88.50;;;;;;4897075;29;20598;-83
2023/05/12 06:45:23;;;;;;;11.18;8.30;;;15.90;88.50;;;;;;4916081;29;20511;-83
2023/05/12 06:47:49;;;;;;;10.20;8.20;;;15.90;88.50;;;;;;4917645;29;20080;-83
2023/05/12 06:50:15;;;;;;;10.85;7.60;;;15.90;88.50;;;;;;4897262;29;20028;-83
2023/05/12 06:52:44;;;;;;;10.35;7.57;;;16.00;89.00;;;;;;4896632;29;20047;-83
2023/05/12 06:55:09;;;;;;;10.65;7.95;;;16.00;88.50;;;;;;4896922;29;20120;-83
2023/05/12 06:57:35;;;;;;;10.43;7.50;;;16.00;88.50;;;;;;4920112;29;20064;-83
2023/05/12 07:00:02;;;;;;;9.63;7.97;;;16.00;88.50;;;;;;4920008;29;20028;-83
2023/05/12 07:02:28;;;;;;;9.30;7.38;;;15.90;88.40;;;;;;4903201;29;20039;-83
2023/05/12 07:04:53;;;;;;;9.52;7.53;;;16.00;88.50;;;;;;4900012;29;20076;-84
2023/05/12 07:07:19;;;;;;;9.75;7.43;;;15.90;88.40;;;;;;4901621;29;20460;-83
2023/05/12 07:09:44;;;;;;;9.52;7.40;;;16.00;88.60;;;;;;4919973;29;20032;-84
2023/05/12 07:12:10;;;;;;;9.75;7.30;;;15.90;88.40;;;;;;4900325;29;20478;-82
2023/05/12 07:14:36;;;;;;;9.88;7.53;;;15.90;88.30;;;;;;4918451;29;20095;-84
2023/05/12 07:17:01;;;;;;;9.77;7.82;;;16.00;88.40;;;;;;4900455;29;20028;-84
2023/05/12 07:19:27;;;;;;;9.80;7.55;;;15.90;88.40;;;;;;4902894;29;20035;-84
2023/05/12 07:21:53;;;;;;;10.48;7.93;;;16.00;88.40;;;;;;4929059;29;20032;-84
2023/05/12 07:24:18;;;;;;;10.15;7.90;;;16.00;88.40;;;;;;4930092;29;20024;-85
2023/05/12 07:26:44;;;;;;;9.43;7.20;;;16.00;88.40;;;;;;4928829;29;20071;-85
2023/05/12 07:29:09;;;;;;;9.80;7.50;;;16.00;88.40;;;;;;4930108;29;20088;-85
2023/05/12 07:31:35;;;;;;;9.85;7.60;;;16.00;88.40;;;;;;4928895;29;20130;-84
2023/05/12 07:34:01;;;;;;;9.48;7.70;;;16.00;88.30;;;;;;4908299;29;20122;-84
2023/05/12 07:36:27;;;;;;;9.27;7.30;;;16.00;88.30;;;;;;4910616;29;20035;-84
2023/05/12 07:38:52;;;;;;;10.45;7.55;;;16.00;88.30;;;;;;4907616;29;20033;-84
2023/05/12 07:41:18;;;;;;;9.90;7.75;;;16.00;88.30;;;;;;4925700;29;20036;-84
2023/05/12 07:43:44;;;;;;;9.13;7.13;;;16.00;88.30;;;;;;4907338;29;20040;-84
2023/05/12 07:46:10;;;;;;;9.55;7.03;;;16.00;88.20;;;;;;4907350;29;20405;-84
2023/05/12 07:48:38;;;;;;;9.18;7.25;;;16.00;88.10;;;;;;4926652;29;20043;-84
2023/05/12 07:51:04;;;;;;;8.63;6.85;;;16.00;88.10;;;;;;4901222;29;20033;-84
2023/05/12 07:53:30;;;;;;;9.48;7.15;;;16.10;88.10;;;;;;4904880;29;20073;-84
2023/05/12 07:55:55;;;;;;;8.95;7.25;;;16.10;88.00;;;;;;4926386;29;20438;-84
2023/05/12 07:58:21;;;;;;;9.07;6.90;;;16.10;87.90;;;;;;4925900;29;20032;-85
2023/05/12 08:00:46;;;;;;;10.38;7.07;;;16.10;87.90;;;;;;4905340;29;20405;-84
2023/05/12 08:03:12;;;;;;;9.35;7.05;;;16.10;87.90;;;;;;4905391;29;20084;-84
2023/05/12 08:05:37;;;;;;;8.90;6.97;;;16.10;87.80;;;;;;4919067;29;20067;-83
2023/05/12 08:08:03;;;;;;;8.50;6.45;;;16.10;87.70;;;;;;4902264;29;20039;-84
2023/05/12 08:10:31;;;;;;;10.20;7.25;;;16.20;87.70;;;;;;4922595;29;20056;-85
2023/05/12 08:12:56;;;;;;;9.27;7.07;;;16.20;87.60;;;;;;4907981;29;20024;-85
2023/05/12 08:15:22;;;;;;;9.65;7.30;;;16.20;87.50;;;;;;4927899;29;20115;-85
2023/05/12 08:17:48;;;;;;;8.90;6.78;;;16.20;87.50;;;;;;4928893;29;20028;-84
2023/05/12 08:20:14;;;;;;;9.10;7.10;;;16.30;87.40;;;;;;4927971;29;20528;-85
2023/05/12 08:22:39;;;;;;;9.00;7.10;;;16.30;87.30;;;;;;4927783;29;20024;-84
2023/05/12 08:25:06;;;;;;;8.68;6.70;;;16.30;87.10;;;;;;4927539;29;20052;-85
2023/05/12 08:27:31;;;;;;;8.73;6.68;;;16.30;87.00;;;;;;4907516;29;20035;-85
2023/05/12 08:29:57;;;;;;;8.77;6.65;;;16.30;86.80;;;;;;4922957;29;20233;-84
2023/05/12 08:32:23;;;;;;;8.63;6.65;;;16.30;86.70;;;;;;4924096;29;20642;-84
2023/05/12 08:34:48;;;;;;;8.93;7.13;;;16.40;86.70;;;;;;4906040;29;20422;-85
2023/05/12 08:37:14;;;;;;;8.13;6.43;;;16.40;86.60;;;;;;4907571;29;20119;-84
2023/05/12 08:39:39;;;;;;;9.05;6.60;;;16.40;86.50;;;;;;4923164;29;20686;-80
2023/05/12 08:42:29;;;;;;;8.10;6.65;;;16.40;86.30;;;;;;4897831;29;20036;-81
2023/05/12 08:44:56;;;;;;;8.57;6.72;;;16.50;86.30;;;;;;4892924;29;20079;-80
2023/05/12 08:47:24;;;;;;;8.93;6.68;;;16.50;86.10;;;;;;4919504;29;20028;-80
2023/05/12 08:49:58;;;;;;;8.73;6.70;;;16.50;86.10;;;;;;4897519;29;20031;-78
2023/05/12 08:52:24;;;;;;;8.60;6.10;;;16.60;86.00;;;;;;4892628;29;20025;-78
2023/05/12 08:54:50;;;;;;;8.30;6.43;;;16.60;85.90;;;;;;4888922;29;20032;-78
2023/05/12 08:57:16;;;;;;;8.85;6.60;;;16.70;85.90;;;;;;4880568;29;20024;-79
2023/05/12 08:59:43;;;;;;;8.65;5.80;;;16.70;85.80;;;;;;4892570;29;20032;-77
2023/05/12 09:02:10;;;;;;;7.75;6.03;;;16.70;85.70;;;;;;4892462;29;20028;-78
2023/05/12 09:04:37;;;;;;;8.65;6.43;;;16.80;85.60;;;;;;4924983;29;20057;-77
2023/05/12 09:07:05;;;;;;;8.70;6.50;;;16.80;85.60;;;;;;4911803;29;20107;-78
2023/05/12 09:09:33;;;;;;;8.15;6.20;;;16.80;85.60;;;;;;4911194;29;20032;-77
2023/05/12 09:12:00;;;;;;;7.70;5.80;;;16.80;85.50;;;;;;4929943;29;20764;-78
2023/05/12 09:14:29;;;;;;;7.68;5.82;;;16.80;85.50;;;;;;4914308;29;20031;-78
2023/05/12 09:17:01;;;;;;;7.90;5.88;;;16.90;85.50;;;;;;4914662;29;20556;-78
2023/05/12 09:19:27;;;;;;;7.78;5.90;;;16.90;85.40;;;;;;4930987;29;20039;-78
2023/05/12 09:21:53;;;;;;;7.88;6.00;;;16.90;85.40;;;;;;4912730;29;20557;-77
2023/05/12 09:24:18;;;;;;;7.70;5.70;;;16.90;85.30;;;;;;4913826;29;20043;-77
2023/05/12 09:26:46;;;;;;;7.85;5.90;;;16.90;85.30;;;;;;4898688;29;20211;-77
2023/05/12 09:29:12;;;;;;;7.38;5.38;;;17.00;85.30;;;;;;4912500;29;20119;-77
2023/05/12 09:31:37;;;;;;;7.43;5.60;;;17.00;85.30;;;;;;4912646;29;20135;-77
2023/05/12 09:34:09;;;;;;;8.40;5.30;;;17.00;85.30;;;;;;4913838;29;20035;-78
2023/05/12 09:36:35;;;;;;;7.47;5.38;;;17.00;85.20;;;;;;4913435;29;20035;-78
2023/05/12 09:39:06;;;;;;;7.68;5.47;;;17.00;85.20;;;;;;4913360;29;20027;-76
2023/05/12 09:41:40;;;;;;;7.68;5.78;;;17.00;85.20;;;;;;4930427;29;20028;-78
2023/05/12 09:44:07;;;;;;;7.38;5.78;;;17.10;85.20;;;;;;4930096;29;20047;-77
2023/05/12 09:46:33;;;;;;;7.65;5.25;;;17.10;85.20;;;;;;4930394;29;20032;-77
2023/05/12 09:48:58;;;;;;;7.28;4.82;;;17.10;85.10;;;;;;4918019;29;20024;-83
2023/05/12 09:51:28;;;;;;;7.50;5.50;;;17.10;85.10;;;;;;4920894;29;20074;-83
2023/05/12 09:53:53;;;;;;;7.35;5.60;;;17.10;85.10;;;;;;4921107;29;20510;-84
2023/05/12 09:56:19;;;;;;;7.18;5.22;;;17.10;85.10;;;;;;4920081;29;20034;-83
2023/05/12 09:58:47;;;;;;;7.72;5.40;;;17.10;85.00;;;;;;4919142;29;20027;-83
2023/05/12 10:01:15;;;;;;;7.13;5.15;;;17.10;85.10;;;;;;4919605;29;20054;-84
2023/05/12 10:03:41;;;;;;;7.28;5.07;;;17.10;85.00;;;;;;4921431;29;20028;-83
2023/05/12 10:06:13;;;;;;;7.13;4.85;;;17.10;85.10;;;;;;4919075;29;20031;-82
2023/05/12 10:09:13;;;;;;;8.00;5.15;;;17.10;85.00;;;;;;4919453;29;20088;-83
2023/05/12 10:11:40;;;;;;;7.65;5.60;;;17.20;85.00;;;;;;4919876;29;20044;-83
2023/05/12 10:14:08;;;;;;;6.70;5.00;;;17.20;84.90;;;;;;4936918;29;20504;-84
2023/05/12 10:16:34;;;;;;;6.40;4.70;;;17.20;84.90;;;;;;4919677;29;20496;-83
2023/05/12 10:19:01;;;;;;;6.78;5.20;;;17.20;84.80;;;;;;4919102;29;20032;-83
2023/05/12 10:21:27;;;;;;;7.38;5.28;;;17.20;84.90;;;;;;4936535;29;20039;-83
2023/05/12 10:23:53;;;;;;;6.60;4.78;;;17.20;84.90;;;;;;4918328;29;20028;-83
2023/05/12 10:26:19;;;;;;;6.93;4.78;;;17.20;84.80;;;;;;4918763;29;20083;-83
2023/05/12 10:28:45;;;;;;;6.65;4.57;;;17.20;84.90;;;;;;4919208;29;20032;-83
2023/05/12 10:31:10;;;;;;;6.50;4.60;;;17.20;85.40;;;;;;4919146;29;20484;-83
2023/05/12 10:33:36;;;;;;;7.20;4.80;;;17.20;84.80;;;;;;4918854;29;20100;-83
2023/05/12 10:36:02;;;;;;;7.15;4.85;;;17.20;84.80;;;;;;4918453;29;20058;-84
2023/05/12 10:38:35;;;;;;;7.45;5.38;;;17.30;84.90;;;;;;4935508;29;20484;-83
2023/05/12 10:41:04;;;;;;;6.35;4.50;;;17.30;84.80;;;;;;4936267;29;20080;-84
2023/05/12 10:43:38;;;;;;;6.38;4.32;;;17.30;84.80;;;;;;4918653;29;20088;-83
2023/05/12 10:46:11;;;;;;;7.03;4.65;;;17.30;84.80;;;;;;4918829;29;20038;-83
2023/05/12 10:48:48;;;;;;;6.20;4.47;;;17.30;84.70;;;;;;4918123;29;20028;-83
2023/05/12 10:51:18;;;;;;;6.38;4.38;;;17.30;84.70;;;;;;4918586;29;20024;-83
2023/05/12 10:53:44;;;;;;;6.93;4.82;;;17.30;84.80;;;;;;4921078;29;20082;-84
2023/05/12 10:56:09;;;;;;;6.15;4.50;;;17.30;84.80;;;;;;4945396;29;20493;-84
2023/05/12 10:58:35;;;;;;;6.43;4.55;;;17.30;84.80;;;;;;4927967;29;20028;-84
2023/05/12 11:01:07;;;;;;;6.78;4.88;;;17.30;84.70;;;;;;4927150;29;20095;-84
2023/05/12 11:03:32;;;;;;;5.72;4.07;;;17.30;84.80;;;;;;4927127;29;20126;-84
2023/05/12 11:06:05;;;;;;;6.47;4.20;;;17.30;84.70;;;;;;4926531;29;20063;-84
2023/05/12 11:08:33;;;;;;;6.32;4.40;;;17.30;84.70;;;;;;4926592;29;20092;-84
2023/05/12 11:10:59;;;;;;;6.10;4.35;;;17.20;84.60;;;;;;4927071;29;20061;-84
2023/05/12 11:13:25;;;;;;;6.15;4.38;;;17.30;84.70;;;;;;4926328;29;20066;-84
2023/05/12 11:15:52;;;;;;;6.20;4.10;;;17.30;84.70;;;;;;4926239;29;20401;-84
2023/05/12 11:18:21;;;;;;;6.30;4.38;;;17.30;84.70;;;;;;4943148;29;20085;-83
2023/05/12 11:20:46;;;;;;;5.95;4.15;;;17.30;84.70;;;;;;4922442;29;20027;-83
2023/05/12 11:23:27;;;;;;;6.20;4.55;;;17.30;84.70;;;;;;4943469;29;20035;-84
2023/05/12 11:25:53;;;;;;;6.40;4.53;;;17.30;84.70;;;;;;4925861;29;20035;-84
2023/05/12 11:28:18;;;;;;;6.25;4.68;;;17.30;84.70;;;;;;4942201;29;20087;-83
2023/05/12 11:30:51;;;;;;;6.30;4.35;;;17.30;84.80;;;;;;4925320;29;20027;-84
2023/05/12 11:33:21;;;;;;;6.15;4.15;;;17.30;84.70;;;;;;4924411;29;20509;-84
2023/05/12 11:35:47;;;;;;;6.43;4.35;;;17.30;84.80;;;;;;4942091;29;20063;-84
2023/05/12 11:38:17;;;;;;;6.32;4.25;;;17.30;84.80;;;;;;4940426;29;20032;-83
2023/05/12 11:40:43;;;;;;;6.25;4.25;;;17.30;84.70;;;;;;4917838;29;20036;-83
2023/05/12 11:43:09;;;;;;;5.97;4.15;;;17.30;84.80;;;;;;4926567;29;20043;-84
2023/05/12 11:45:35;;;;;;;6.25;4.15;;;17.30;84.80;;;;;;4926175;29;20091;-84
2023/05/12 11:48:12;;;;;;;6.45;4.30;;;17.30;84.80;;;;;;4932531;29;20043;-84
2023/05/12 11:50:39;;;;;;;6.95;4.32;;;17.30;84.80;;;;;;4931749;29;20032;-85
2023/05/12 11:53:09;;;;;;;6.43;4.28;;;17.30;84.80;;;;;;4932578;29;20047;-85
2023/05/12 11:55:35;;;;;;;6.70;4.03;;;17.30;84.90;;;;;;4931911;29;20027;-84
2023/05/12 11:58:02;;;;;;;6.10;4.07;;;17.30;84.90;;;;;;4931526;29;20034;-84
2023/05/12 12:00:33;;;;;;;5.95;4.10;;;17.20;84.90;;;;;;4947969;29;20064;-84
2023/05/12 12:03:25;;;;;;;5.72;4.00;;;17.20;85.00;;;;;;4930577;29;20496;-84
2023/05/12 12:05:59;;;;;;;6.13;4.05;;;17.20;85.10;;;;;;4927331;29;20059;-84
2023/05/12 12:08:25;;;;;;;6.30;4.32;;;17.20;85.20;;;;;;4929906;29;20035;-83
2023/05/12 12:10:50;;;;;;;6.20;4.13;;;17.20;85.30;;;;;;4921988;29;20027;-83
2023/05/12 12:13:20;;;;;;;6.07;3.97;;;17.10;85.40;;;;;;4926453;29;20119;-84
2023/05/12 12:15:47;;;;;;;6.35;4.20;;;17.10;85.40;;;;;;4929582;29;20038;-84
2023/05/12 12:18:12;;;;;;;5.78;4.10;;;17.10;85.40;;;;;;4929203;29;20045;-83
2023/05/12 12:20:38;;;;;;;6.25;4.30;;;17.00;85.40;;;;;;4928794;29;20357;-84
2023/05/12 12:23:03;;;;;;;5.50;3.88;;;17.10;85.50;;;;;;4945849;29;20051;-83
2023/05/12 12:25:29;;;;;;;5.78;3.78;;;17.10;85.50;;;;;;4927920;29;20030;-84
2023/05/12 12:27:54;;;;;;;6.32;4.22;;;17.10;85.50;;;;;;4927464;29;20024;-83
2023/05/12 12:30:20;;;;;;;6.07;3.95;;;17.10;85.50;;;;;;4925229;29;20059;-83
2023/05/12 12:32:46;;;;;;;5.97;4.05;;;17.10;85.50;;;;;;4939026;29;20111;-84
2023/05/12 12:35:12;;;;;;;6.25;4.13;;;17.10;85.50;;;;;;4926352;29;20396;-84
2023/05/12 12:37:39;;;;;;;6.70;4.00;;;17.10;85.40;;;;;;4924955;29;20088;-82
2023/05/12 12:40:07;;;;;;;5.43;3.55;;;17.10;85.40;;;;;;4925114;29;20441;-82
2023/05/12 12:42:34;;;;;;;6.10;3.75;;;17.10;85.40;;;;;;4924163;29;20024;-82